Airfield :
LOGIN :

Register | Disclaimer

   EN    FR    IT 

 










Legend :    VFR   Marginal VFR   IFR   Intensive IFR   Very Intensive IFR
Visi :
Ceiling :
>= 8 km
>= 3000ft
5 to 8 km
1000 to 3000 ft
1500m to 5 km
500 to 1000 ft
800 to 1500m
200 to 500 ft
< 800m
< 200 ft
Symbols :   Thunderstorms  Fog  Heavy snow  Heavy precipitations  Wind > 20 kt
SIGMETs :     Misc.  Thunderstorms  Icing  Turbulence  Mountain Waves  Volcanic Ashes






- Airport Elevation : 26 ft
- IATA code : GLA


EGPF - Glasgow

CURRENT METAR :
  • 131720Z AUTO 06009KT 9999 SCT009 OVC024 03/02 Q0995

EXPIRED METARs :
  • 131650Z AUTO 07008KT 9999 BKN023 OVC029 03/01 Q0995
  • 131620Z AUTO 08008KT 9999 BKN022 OVC027 03/01 Q0995
  • 131550Z AUTO 06012KT 9999 BKN019 OVC027 04/01 Q0994
  • 131520Z AUTO 07009KT 9999 BKN017 BKN025 04/02 Q0994
  • 131450Z AUTO 06010KT 9999 SCT018 04/02 Q0994

TAF TAF EGPF
Valid from the 13 at 12:00 until the 14 at 12:00 UTC


131059Z 1312/1412 09005KT 9999 FEW035
PROB30
TEMPO 1400/1410 0300 FZFG BKN000
ATIS : +44 141 887 7449



MET'MAP, your aeronautical weather chart ! - Copyright ORBIFLY December 2007 - Disclaimer

ORBIFLY MET'MAP TEAM :

Programming & Development : Alexandra Zaïnal
Concept & Development : Baudouin d'Aumeries
Co-Development & Prog : Marc-Olivier Méhu
Technical & hardware support : Manuel Goepfert

Contact : metmap@orbifly.com




SOURCES & CREDITS :

   NOAA